Ginys del Meteocat

Dades de l'estació automàtica Vielha

?
?
Resum diari 23:00 TU
Dades diàries de l'estació meteorològica
Temperatura mitjana 2.7 °C
Temperatura màxima 9.4 °C 13:41 TU
Temperatura mínima 0.4 °C 23:20 TU
Humitat relativa mitjana 78%
Precipitació acumulada 0.0 mm
Gruix de neu màxim sense dades
Ratxa màxima del vent (10 m) 20.2 km/h - 222º 5:05 TU
Pressió atmosfèrica mitjana 1022.5 hPa

El tram horari està expressat en Temps Universal (TU). Cal sumar una hora en horari d'hivern i dues en horari d'estiu per passar a l'hora oficial.

Vielha

Metadades estació meteorol´gica
Municipi Vielha e Mijaran
Comarca Val d'Aran
Altitud 1002 m
Data alta 15.02.1996
Estat actual Operativa
Dades de període
Període
TU
TM
°C
TX
°C
TN
°C
HRM
%
PPT
mm
VVM (10 m)
km/h
DVM (10 m)
graus
VVX (10 m)
km/h
PM
hPa
00:00 - 00:30 3.3 3.6 3.0 80 0.0 9.0 196 16.2 1023.1
00:30 - 01:00 2.8 3.4 2.1 82 0.0 5.8 197 11.9 1023.2
01:00 - 01:30 2.2 2.5 1.9 85 0.0 6.1 197 16.6 1023.5
01:30 - 02:00 2.0 2.2 1.9 85 0.0 7.6 199 13.0 1023.5
02:00 - 02:30 2.2 2.4 1.9 83 0.0 6.8 192 13.3 1023.3
02:30 - 03:00 2.0 2.4 1.7 82 0.0 5.4 195 12.2 1023.3
03:00 - 03:30 1.8 2.2 1.5 82 0.0 6.5 191 12.6 1023.1
03:30 - 04:00 1.5 1.9 1.2 83 0.0 6.1 195 13.7 1023.0
04:00 - 04:30 1.4 1.7 1.1 84 0.0 7.6 191 12.2 1022.9
04:30 - 05:00 1.0 1.3 0.7 85 0.0 7.2 197 12.6 1023.0
05:00 - 05:30 1.2 1.5 0.8 83 0.0 7.9 192 20.2 1022.9
05:30 - 06:00 1.1 1.5 0.8 83 0.0 9.0 197 17.3 1023.1
06:00 - 06:30 1.1 1.3 0.8 82 0.0 7.6 189 15.1 1023.2
06:30 - 07:00 0.7 1.3 0.4 84 0.0 7.2 191 13.3 1023.6
07:00 - 07:30 0.8 1.0 0.6 83 0.0 6.8 191 14.0 1023.7
07:30 - 08:00 0.7 0.9 0.5 83 0.0 7.2 193 13.3 1023.9
08:00 - 08:30 0.8 1.0 0.6 85 0.0 8.3 194 14.4 1024.1
08:30 - 09:00 1.0 1.2 0.9 85 0.0 5.8 197 13.0 1024.0
09:00 - 09:30 1.5 1.7 1.0 82 0.0 5.8 195 15.1 1023.7
09:30 - 10:00 1.9 2.0 1.6 82 0.0 7.2 195 10.4 1023.6
10:00 - 10:30 2.2 2.9 1.9 83 0.0 7.6 200 9.7 1023.5
10:30 - 11:00 3.1 3.4 2.8 81 0.0 4.7 203 8.3 1022.8
11:00 - 11:30 3.9 4.6 3.3 74 0.0 2.2 185 6.1 1022.1
11:30 - 12:00 4.4 6.6 3.7 75 0.0 1.8 195 6.1 1021.4
12:00 - 12:30 6.7 7.5 5.8 66 0.0 2.2 199 5.4 1020.1
12:30 - 13:00 7.5 8.4 6.6 65 0.0 2.9 199 5.8 1019.5
13:00 - 13:30 7.3 8.8 6.7 65 0.0 2.5 202 6.1 1019.4
13:30 - 14:00 9.0 9.4 8.6 52 0.0 4.0 203 11.2 1018.4
14:00 - 14:30 8.7 9.3 8.2 51 0.0 4.7 204 14.8 1018.6
14:30 - 15:00 6.9 8.3 5.7 61 0.0 7.6 204 13.0 1019.2
15:00 - 15:30 5.6 5.7 5.3 68 0.0 7.9 193 12.2 1019.8
15:30 - 16:00 5.3 5.5 5.1 69 0.0 7.2 193 11.5 1020.0
16:00 - 16:30 4.6 5.1 4.2 73 0.0 8.6 192 13.0 1020.5
16:30 - 17:00 3.9 4.4 3.2 73 0.0 7.2 189 13.7 1021.0
17:00 - 17:30 2.8 3.2 2.1 76 0.0 6.1 190 12.6 1021.7
17:30 - 18:00 2.0 2.2 1.7 80 0.0 9.4 198 16.2 1022.4
18:00 - 18:30 1.6 1.8 1.4 81 0.0 10.1 199 18.7 1022.8
18:30 - 19:00 1.4 1.5 1.3 81 0.0 9.4 201 16.9 1023.1
19:00 - 19:30 1.3 1.6 1.1 81 0.0 7.2 196 15.8 1023.4
19:30 - 20:00 1.1 1.4 0.8 80 0.0 7.6 203 14.8 1023.7
20:00 - 20:30 1.0 1.3 0.7 80 0.0 7.6 193 13.0 1023.8
20:30 - 21:00 0.9 1.2 0.6 81 0.0 7.2 193 14.4 1024.0
21:00 - 21:30 0.8 1.0 0.4 81 0.0 7.2 196 14.8 1024.1
21:30 - 22:00 0.9 1.3 0.6 81 0.0 7.6 199 14.8 1024.0
22:00 - 22:30 0.8 1.1 0.5 81 0.0 7.6 198 14.0 1023.8
22:30 - 23:00 0.8 1.1 0.6 81 0.0 7.9 200 15.1 1023.5
23:00 - 23:30 0.6 1.1 0.4 82 0.0 9.4 201 15.5 1023.3

Les dades en taronja només han passat un control de qualitat automàtic. Resta pendent la seva validació definitiva.